createdAt,value
2016-05-01T00:00:39.340Z,9.77
2016-05-01T00:01:39.640Z,9.87
2016-05-01T00:02:39.361Z,9.86
2016-05-01T00:03:39.223Z,9.8
2016-05-01T00:04:39.335Z,9.84
2016-05-01T00:05:42.448Z,9.77
2016-05-01T00:06:39.373Z,9.86
2016-05-01T00:07:39.171Z,9.84
2016-05-01T00:08:39.331Z,9.82
2016-05-01T00:09:39.333Z,9.87
2016-05-01T00:10:39.305Z,9.89
2016-05-01T00:11:39.324Z,9.84
2016-05-01T00:12:39.044Z,9.84
2016-05-01T00:13:39.313Z,9.84
2016-05-01T00:14:39.160Z,9.87
2016-05-01T00:15:39.334Z,9.84
2016-05-01T00:16:39.305Z,9.89
2016-05-01T00:17:39.324Z,10.01
2016-05-01T00:18:39.310Z,9.89
2016-05-01T00:19:39.235Z,9.89
2016-05-01T00:20:39.832Z,9.89
2016-05-01T00:21:39.678Z,9.87
2016-05-01T00:22:39.399Z,9.87
2016-05-01T00:23:42.401Z,9.84
2016-05-01T00:24:39.389Z,9.94
2016-05-01T00:25:39.392Z,9.87
2016-05-01T00:26:39.301Z,9.92
2016-05-01T00:27:39.303Z,9.86
2016-05-01T00:28:39.415Z,9.86
2016-05-01T00:29:39.247Z,9.87
2016-05-01T00:30:39.359Z,9.91
2016-05-01T00:31:39.456Z,9.92
2016-05-01T00:32:42.614Z,9.86
2016-05-01T00:33:39.445Z,9.94
2016-05-01T00:34:39.151Z,9.95
2016-05-01T00:35:39.434Z,10.02
2016-05-01T00:36:39.297Z,9.97
2016-05-01T00:37:39.252Z,9.98
2016-05-01T00:38:39.114Z,10.02
2016-05-01T00:39:39.805Z,10.04
2016-05-01T00:40:39.136Z,10.01
2016-05-01T00:41:39.263Z,10.02
2016-05-01T00:42:39.297Z,9.97
2016-05-01T00:43:39.144Z,9.86
2016-05-01T00:44:39.271Z,9.89
2016-05-01T00:45:39.243Z,9.91
2016-05-01T00:46:39.245Z,9.87
2016-05-01T00:47:39.124Z,9.87
2016-05-01T00:48:39.251Z,9.91
2016-05-01T00:49:39.237Z,9.87
2016-05-01T00:50:39.584Z,9.86
2016-05-01T00:51:39.259Z,9.94
2016-05-01T00:52:39.262Z,9.91
2016-05-01T00:53:39.249Z,9.92
2016-05-01T00:54:39.251Z,9.91
2016-05-01T00:55:39.254Z,9.92
2016-05-01T00:56:39.257Z,9.94
2016-05-01T00:57:39.244Z,9.8
2016-05-01T00:58:38.965Z,9.84
2016-05-01T00:59:39.234Z,9.86
2016-05-01T01:00:39.236Z,9.92
2016-05-01T01:01:39.114Z,9.92
2016-05-01T01:02:39.226Z,9.91
2016-05-01T01:03:39.244Z,9.86
2016-05-01T01:04:39.091Z,9.92
2016-05-01T01:05:39.202Z,9.91
2016-05-01T01:06:42.064Z,9.92
2016-05-01T01:07:39.224Z,9.86
2016-05-01T01:08:39.227Z,9.84
2016-05-01T01:09:39.088Z,9.83
2016-05-01T01:10:39.232Z,9.8
2016-05-01T01:11:39.063Z,9.92
2016-05-01T01:12:39.065Z,9.74
2016-05-01T01:13:39.241Z,9.79
2016-05-01T01:14:39.223Z,9.72
2016-05-01T01:15:39.226Z,9.73
2016-05-01T01:16:39.087Z,9.68
2016-05-01T01:17:39.059Z,9.65
2016-05-01T01:18:39.218Z,9.65
2016-05-01T01:19:39.206Z,9.66
2016-05-01T01:20:39.348Z,9.68
2016-05-01T01:21:39.195Z,9.66
2016-05-01T01:22:39.214Z,9.62
2016-05-01T01:23:39.200Z,9.66
2016-05-01T01:24:39.188Z,9.54
2016-05-01T01:25:39.205Z,9.61
2016-05-01T01:26:39.208Z,9.54
2016-05-01T01:27:39.196Z,9.61
2016-05-01T01:28:39.182Z,9.61
2016-05-01T01:29:39.186Z,9.65
2016-05-01T01:30:39.047Z,9.58
2016-05-01T01:31:39.174Z,9.58
2016-05-01T01:32:39.162Z,9.55
2016-05-01T01:33:39.180Z,9.48
2016-05-01T01:34:39.199Z,9.54
2016-05-01T01:35:39.030Z,9.56
2016-05-01T01:36:39.189Z,9.47
2016-05-01T01:37:39.159Z,9.43
2016-05-01T01:38:39.179Z,9.43
2016-05-01T01:39:39.181Z,9.43
2016-05-01T01:40:39.168Z,9.32
2016-05-01T01:41:39.030Z,9.39
2016-05-01T01:42:39.189Z,9.44
2016-05-01T01:43:39.004Z,9.4
2016-05-01T01:44:39.178Z,9.51
2016-05-01T01:45:39.165Z,9.4
2016-05-01T01:46:39.028Z,9.41
2016-05-01T01:47:38.984Z,9.47
2016-05-01T01:48:39.158Z,9.47
2016-05-01T01:49:39.145Z,9.32
2016-05-01T01:50:40.320Z,9.37
2016-05-01T01:51:39.166Z,9.48
2016-05-01T01:52:39.013Z,9.4
2016-05-01T01:53:39.124Z,9.37
2016-05-01T01:54:39.159Z,9.44
2016-05-01T01:55:39.147Z,9.44
2016-05-01T01:56:39.133Z,9.36
2016-05-01T01:57:38.994Z,9.29
2016-05-01T01:58:39.169Z,9.29
2016-05-01T01:59:39.125Z,9.29
2016-05-01T02:00:39.300Z,9.34
2016-05-01T02:01:39.130Z,9.32
2016-05-01T02:02:38.977Z,9.31
2016-05-01T02:03:39.152Z,9.31
2016-05-01T02:04:39.123Z,9.29
2016-05-01T02:05:39.235Z,9.29
2016-05-01T02:06:38.971Z,9.32
2016-05-01T02:07:39.131Z,9.16
2016-05-01T02:08:39.102Z,9.21
2016-05-01T02:09:38.965Z,9.19
2016-05-01T02:10:38.951Z,9.19
2016-05-01T02:11:38.986Z,9.16
2016-05-01T02:12:38.972Z,9.19
2016-05-01T02:13:39.100Z,9.19
2016-05-01T02:14:39.151Z,9.22
2016-05-01T02:15:39.090Z,9.14
2016-05-01T02:16:39.093Z,9.14
2016-05-01T02:17:39.112Z,9.19
2016-05-01T02:18:39.114Z,9.18
2016-05-01T02:19:39.117Z,9.19
2016-05-01T02:20:40.214Z,9.21
2016-05-01T02:21:39.106Z,9.16
2016-05-01T02:22:38.953Z,9.13
2016-05-01T02:23:39.112Z,9.16
2016-05-01T02:24:39.067Z,9.25
2016-05-01T02:25:39.086Z,9.19
2016-05-01T02:26:39.104Z,9.18
2016-05-01T02:27:39.075Z,9.21
2016-05-01T02:28:39.078Z,9.18
2016-05-01T02:29:39.080Z,9.22
2016-05-01T02:30:39.068Z,9.19
2016-05-01T02:31:39.071Z,9.14
2016-05-01T02:32:39.074Z,9.13
2016-05-01T02:33:38.935Z,9.18
2016-05-01T02:34:39.047Z,9.06
2016-05-01T02:35:39.082Z,9.08
2016-05-01T02:36:39.099Z,9.16
2016-05-01T02:37:39.071Z,9.11
2016-05-01T02:38:38.887Z,9.08
2016-05-01T02:39:39.311Z,9.06
2016-05-01T02:40:39.063Z,9.1
2016-05-01T02:41:39.035Z,9.06
2016-05-01T02:42:39.038Z,9.02
2016-05-01T02:43:39.056Z,8.99
2016-05-01T02:44:39.028Z,8.97
2016-05-01T02:45:39.030Z,9.02
2016-05-01T02:46:39.048Z,9.02
2016-05-01T02:47:39.020Z,9.04
2016-05-01T02:48:39.038Z,9.03
2016-05-01T02:49:39.056Z,9
2016-05-01T02:50:39.137Z,9
2016-05-01T02:51:39.031Z,9.03
2016-05-01T02:52:39.018Z,9.06
2016-05-01T02:53:39.036Z,9.04
2016-05-01T02:54:38.836Z,9.03
2016-05-01T02:55:39.010Z,9.03
2016-05-01T02:56:39.045Z,8.97
2016-05-01T02:57:39.016Z,9
2016-05-01T02:58:39.019Z,9.03
2016-05-01T02:59:39.036Z,9
2016-05-01T03:00:38.836Z,8.99
2016-05-01T03:01:39.011Z,9.02
2016-05-01T03:02:39.029Z,9.03
2016-05-01T03:03:39.016Z,9.02
2016-05-01T03:04:39.002Z,8.97
2016-05-01T03:05:39.037Z,8.97
2016-05-01T03:06:38.821Z,9
2016-05-01T03:07:39.292Z,8.95
2016-05-01T03:08:38.998Z,8.91
2016-05-01T03:09:39.016Z,9.02
2016-05-01T03:10:38.988Z,8.97
2016-05-01T03:11:38.976Z,8.97
2016-05-01T03:12:38.979Z,8.94
2016-05-01T03:13:38.980Z,8.94
2016-05-01T03:14:38.968Z,9.1
2016-05-01T03:15:39.001Z,8.97
2016-05-01T03:16:38.989Z,8.92
2016-05-01T03:17:38.976Z,8.84
2016-05-01T03:18:38.978Z,8.88
2016-05-01T03:19:38.965Z,8.94
2016-05-01T03:20:38.968Z,8.89
2016-05-01T03:21:38.970Z,8.91
2016-05-01T03:22:38.973Z,8.85
2016-05-01T03:23:38.961Z,8.81
2016-05-01T03:24:38.947Z,8.84
2016-05-01T03:25:38.966Z,8.89
2016-05-01T03:26:41.984Z,8.91
2016-05-01T03:27:38.940Z,8.84
2016-05-01T03:28:39.130Z,8.81
2016-05-01T03:29:38.977Z,8.87
2016-05-01T03:30:38.933Z,8.73
2016-05-01T03:31:38.920Z,8.78
2016-05-01T03:32:38.938Z,8.85
2016-05-01T03:33:38.925Z,8.85
2016-05-01T03:34:38.928Z,8.71
2016-05-01T03:35:38.930Z,8.74
2016-05-01T03:36:38.746Z,8.71
2016-05-01T03:37:38.905Z,8.78
2016-05-01T03:38:38.751Z,8.84
2016-05-01T03:39:38.738Z,8.7
2016-05-01T03:40:38.741Z,8.71
2016-05-01T03:41:38.915Z,8.7
2016-05-01T03:42:38.918Z,8.74
2016-05-01T03:43:38.718Z,8.74
2016-05-01T03:44:38.876Z,8.71
2016-05-01T03:45:38.895Z,8.69
2016-05-01T03:46:38.898Z,8.73
2016-05-01T03:47:38.900Z,8.71
2016-05-01T03:48:38.887Z,8.85
2016-05-01T03:49:38.733Z,8.67
2016-05-01T03:50:38.720Z,8.74
2016-05-01T03:51:38.723Z,8.73
2016-05-01T03:52:38.867Z,8.7
2016-05-01T03:53:38.854Z,8.66
2016-05-01T03:54:38.717Z,8.63
2016-05-01T03:55:38.844Z,8.66
2016-05-01T03:56:38.847Z,8.63
2016-05-01T03:57:39.209Z,8.56
2016-05-01T03:58:38.852Z,8.64
2016-05-01T03:59:38.683Z,8.6
2016-05-01T04:00:38.872Z,8.56
2016-05-01T04:01:38.844Z,8.53
2016-05-01T04:02:38.831Z,8.53
2016-05-01T04:03:38.849Z,8.58
2016-05-01T04:04:38.836Z,8.58
2016-05-01T04:05:39.073Z,8.55
2016-05-01T04:06:38.685Z,8.49
2016-05-01T04:07:38.672Z,8.58
2016-05-01T04:08:38.832Z,8.53
2016-05-01T04:09:38.802Z,8.63
2016-05-01T04:10:38.665Z,8.52
2016-05-01T04:11:38.808Z,8.52
2016-05-01T04:12:38.655Z,8.53
2016-05-01T04:13:38.799Z,8.51
2016-05-01T04:14:38.801Z,8.55
2016-05-01T04:15:38.804Z,8.51
2016-05-01T04:16:38.806Z,8.49
2016-05-01T04:17:38.809Z,8.53
2016-05-01T04:18:38.796Z,8.53
2016-05-01T04:19:38.783Z,8.6
2016-05-01T04:20:39.004Z,8.49
2016-05-01T04:21:38.648Z,8.55
2016-05-01T04:22:38.822Z,8.49
2016-05-01T04:23:38.794Z,8.42
2016-05-01T04:24:38.780Z,8.42
2016-05-01T04:25:38.799Z,8.41
2016-05-01T04:26:38.786Z,8.38
2016-05-01T04:27:38.633Z,8.42
2016-05-01T04:28:38.464Z,8.38
2016-05-01T04:29:38.779Z,8.42
2016-05-01T04:30:38.750Z,8.42
2016-05-01T04:31:38.753Z,8.42
2016-05-01T04:32:38.787Z,8.42
2016-05-01T04:33:38.758Z,8.41
2016-05-01T04:34:38.745Z,8.44
2016-05-01T04:35:38.905Z,8.38
2016-05-01T04:36:38.750Z,8.42
2016-05-01T04:37:38.597Z,8.42
2016-05-01T04:38:38.724Z,8.37
2016-05-01T04:39:38.727Z,8.37
2016-05-01T04:40:38.730Z,8.37
2016-05-01T04:41:38.732Z,8.42
2016-05-01T04:42:38.735Z,8.31
2016-05-01T04:43:38.723Z,8.37
2016-05-01T04:44:38.709Z,8.31
2016-05-01T04:45:38.712Z,8.34
2016-05-01T04:46:38.699Z,8.33
2016-05-01T04:47:38.718Z,8.28
2016-05-01T04:48:38.690Z,8.44
2016-05-01T04:49:38.708Z,8.31
2016-05-01T04:50:39.584Z,8.31
2016-05-01T04:51:38.698Z,8.28
2016-05-01T04:52:38.715Z,8.38
2016-05-01T04:53:38.687Z,8.45
2016-05-01T04:54:38.706Z,8.41
2016-05-01T04:55:38.567Z,8.33
2016-05-01T04:56:38.679Z,8.28
2016-05-01T04:57:38.713Z,8.3
2016-05-01T04:58:38.669Z,8.27
2016-05-01T04:59:38.687Z,8.33
2016-05-01T05:00:38.518Z,8.37
2016-05-01T05:01:38.677Z,8.3
2016-05-01T05:02:38.664Z,8.3
2016-05-01T05:03:38.683Z,8.3
2016-05-01T05:04:38.514Z,8.31
2016-05-01T05:05:39.188Z,8.38
2016-05-01T05:06:38.644Z,8.45
2016-05-01T05:07:38.663Z,8.34
2016-05-01T05:08:38.509Z,8.42
2016-05-01T05:09:38.511Z,8.36
2016-05-01T05:10:38.639Z,8.37
2016-05-01T05:11:38.673Z,8.38
2016-05-01T05:12:38.644Z,8.42
2016-05-01T05:13:38.616Z,8.41
2016-05-01T05:14:38.477Z,8.49
2016-05-01T05:15:38.652Z,8.45
2016-05-01T05:16:38.499Z,8.52
2016-05-01T05:17:38.470Z,8.49
2016-05-01T05:18:38.629Z,8.51
2016-05-01T05:19:38.615Z,8.58
2016-05-01T05:20:39.947Z,8.51
2016-05-01T05:21:38.606Z,8.56
2016-05-01T05:22:38.624Z,8.63
2016-05-01T05:23:38.612Z,8.67
2016-05-01T05:24:38.615Z,8.69
2016-05-01T05:25:38.600Z,8.67
2016-05-01T05:26:38.604Z,8.73
2016-05-01T05:27:38.607Z,8.79
2016-05-01T05:28:38.594Z,8.78
2016-05-01T05:29:38.597Z,8.81
2016-05-01T05:30:38.583Z,8.71
2016-05-01T05:31:38.602Z,8.73
2016-05-01T05:32:38.589Z,8.78
2016-05-01T05:33:38.591Z,8.7
2016-05-01T05:34:38.578Z,8.71
2016-05-01T05:35:38.988Z,8.78
2016-05-01T05:36:38.599Z,8.81
2016-05-01T05:37:38.587Z,8.82
2016-05-01T05:38:38.589Z,8.78
2016-05-01T05:39:38.419Z,8.82
2016-05-01T05:40:38.266Z,8.89
2016-05-01T05:41:38.566Z,8.91
2016-05-01T05:42:38.584Z,8.82
2016-05-01T05:43:38.416Z,8.92
2016-05-01T05:44:38.590Z,8.88
2016-05-01T05:45:38.577Z,8.82
2016-05-01T05:46:38.564Z,8.91
2016-05-01T05:47:38.551Z,8.89
2016-05-01T05:48:38.569Z,8.84
2016-05-01T05:49:38.557Z,8.99
2016-05-01T05:50:38.685Z,9.02
2016-05-01T05:51:38.546Z,9.06
2016-05-01T05:52:38.393Z,9.03
2016-05-01T05:53:38.551Z,9.02
2016-05-01T05:54:38.539Z,9.1
2016-05-01T05:55:38.557Z,9.06
2016-05-01T05:56:38.544Z,9.13
2016-05-01T05:57:38.562Z,9.11
2016-05-01T05:58:38.392Z,9.14
2016-05-01T05:59:38.520Z,9.18
2016-05-01T06:00:38.539Z,9.13
2016-05-01T06:01:38.557Z,9.21
2016-05-01T06:02:38.528Z,9.19
2016-05-01T06:03:38.531Z,9.16
2016-05-01T06:04:38.519Z,9.29
2016-05-01T06:05:38.912Z,9.39
2016-05-01T06:06:38.508Z,9.43
2016-05-01T06:07:38.541Z,9.4
2016-05-01T06:08:38.373Z,9.44
2016-05-01T06:09:38.517Z,9.39
2016-05-01T06:10:38.540Z,9.43
2016-05-01T06:11:38.365Z,9.48
2016-05-01T06:12:39.028Z,9.56
2016-05-01T06:13:38.544Z,9.58
2016-05-01T06:14:38.500Z,9.58
2016-05-01T06:15:38.486Z,9.55
2016-05-01T06:16:38.349Z,9.5
2016-05-01T06:17:38.491Z,9.54
2016-05-01T06:18:38.479Z,9.55
2016-05-01T06:19:38.482Z,9.55
2016-05-01T06:20:38.235Z,9.55
2016-05-01T06:21:38.487Z,9.64
2016-05-01T06:22:38.474Z,9.69
2016-05-01T06:23:38.493Z,9.61
2016-05-01T06:24:38.324Z,9.79
2016-05-01T06:25:38.482Z,9.84
2016-05-01T06:26:38.501Z,9.73
2016-05-01T06:27:38.487Z,9.89
2016-05-01T06:28:38.334Z,9.86
2016-05-01T06:29:38.477Z,9.89
2016-05-01T06:30:38.479Z,9.84
2016-05-01T06:31:38.483Z,9.91
2016-05-01T06:32:38.485Z,9.92
2016-05-01T06:33:38.315Z,9.91
2016-05-01T06:34:38.476Z,10.01
2016-05-01T06:35:39.884Z,9.99
2016-05-01T06:36:38.481Z,10.04
2016-05-01T06:37:38.327Z,10.05
2016-05-01T06:38:38.329Z,10.13
2016-05-01T06:39:38.457Z,10.19
2016-05-01T06:40:38.460Z,10.16
2016-05-01T06:41:38.479Z,10.13
2016-05-01T06:42:38.309Z,10.16
2016-05-01T06:43:38.312Z,10.2
2016-05-01T06:44:38.299Z,10.31
2016-05-01T06:45:38.317Z,10.4
2016-05-01T06:46:38.148Z,10.53
2016-05-01T06:47:38.150Z,10.56
2016-05-01T06:48:38.466Z,10.51
2016-05-01T06:49:38.453Z,10.48
2016-05-01T06:50:38.344Z,10.48
2016-05-01T06:51:38.528Z,10.54
2016-05-01T06:52:38.590Z,10.54
2016-05-01T06:53:38.619Z,10.54
2016-05-01T06:54:38.508Z,10.48
2016-05-01T06:55:38.677Z,10.54
2016-05-01T06:56:38.695Z,10.63
2016-05-01T06:57:38.697Z,10.75
2016-05-01T06:58:38.731Z,10.82
2016-05-01T06:59:38.734Z,10.86
2016-05-01T07:00:38.588Z,11
2016-05-01T07:01:38.612Z,11.18
2016-05-01T07:02:38.604Z,11.33
2016-05-01T07:03:38.753Z,11.44
2016-05-01T07:04:38.777Z,11.33
2016-05-01T07:05:38.892Z,11.26
2016-05-01T07:06:38.771Z,11.19
2016-05-01T07:07:38.620Z,11.12
2016-05-01T07:08:38.781Z,11.11
2016-05-01T07:09:38.770Z,11.14
2016-05-01T07:10:38.775Z,11.23
2016-05-01T07:11:38.636Z,11.4
2016-05-01T07:12:38.782Z,11.36
2016-05-01T07:13:38.784Z,11.44
2016-05-01T07:14:38.788Z,11.45
2016-05-01T07:15:38.791Z,11.47
2016-05-01T07:16:38.638Z,11.4
2016-05-01T07:17:38.812Z,11.43
2016-05-01T07:18:38.785Z,11.32
2016-05-01T07:19:38.787Z,11.43
2016-05-01T07:20:38.650Z,11.4
2016-05-01T07:21:38.777Z,11.41
2016-05-01T07:22:38.780Z,11.23
2016-05-01T07:23:38.815Z,11.17
2016-05-01T07:24:38.785Z,11.12
2016-05-01T07:25:38.773Z,11.15
2016-05-01T07:26:38.775Z,11.17
2016-05-01T07:27:38.793Z,11.19
2016-05-01T07:28:38.796Z,11.07
2016-05-01T07:29:38.784Z,11.14
2016-05-01T07:30:38.786Z,11.1
2016-05-01T07:31:38.633Z,11.11
2016-05-01T07:32:38.620Z,11.04
2016-05-01T07:33:38.810Z,11.14
2016-05-01T07:34:38.656Z,11.4
2016-05-01T07:35:38.628Z,11.52
2016-05-01T07:36:38.786Z,11.6
2016-05-01T07:37:38.806Z,11.73
2016-05-01T07:38:38.792Z,11.73
2016-05-01T07:39:38.622Z,11.77
2016-05-01T07:40:38.782Z,11.65
2016-05-01T07:41:38.785Z,11.54
2016-05-01T07:42:38.788Z,11.57
2016-05-01T07:43:38.805Z,11.6
2016-05-01T07:44:38.652Z,11.63
2016-05-01T07:45:38.655Z,11.59
2016-05-01T07:46:38.799Z,11.6
2016-05-01T07:47:38.801Z,11.78
2016-05-01T07:48:38.788Z,12.09
2016-05-01T07:49:38.649Z,12.21
2016-05-01T07:50:38.668Z,12.25
2016-05-01T07:51:38.812Z,12.54
2016-05-01T07:52:38.642Z,12.64
2016-05-01T07:53:38.629Z,12.82
2016-05-01T07:54:38.804Z,12.9
2016-05-01T07:55:38.791Z,12.86
2016-05-01T07:56:38.809Z,12.98
2016-05-01T07:57:38.796Z,12.94
2016-05-01T07:58:38.815Z,12.8
2016-05-01T07:59:38.912Z,12.78
2016-05-01T08:00:38.820Z,12.87
2016-05-01T08:01:38.807Z,13
2016-05-01T08:02:38.669Z,13.04
2016-05-01T08:03:38.797Z,13.3
2016-05-01T08:04:38.658Z,13.41
2016-05-01T08:05:39.303Z,13.85
2016-05-01T08:06:38.805Z,14.17
2016-05-01T08:07:38.666Z,14.22
2016-05-01T08:08:38.842Z,14.12
2016-05-01T08:09:38.814Z,14.14
2016-05-01T08:10:38.847Z,14.22
2016-05-01T08:11:38.834Z,14.35
2016-05-01T08:12:38.821Z,14.25
2016-05-01T08:13:38.839Z,14.14
2016-05-01T08:14:38.826Z,14.11
2016-05-01T08:15:38.544Z,14.04
2016-05-01T08:16:38.829Z,14.07
2016-05-01T08:17:38.707Z,14.25
2016-05-01T08:18:38.835Z,14.14
2016-05-01T08:19:38.837Z,14.22
2016-05-01T08:20:38.902Z,14.18
2016-05-01T08:21:38.843Z,14.07
2016-05-01T08:22:38.861Z,13.99
2016-05-01T08:23:38.864Z,13.83
2016-05-01T08:24:38.866Z,13.83
2016-05-01T08:25:38.884Z,13.83
2016-05-01T08:26:38.871Z,13.75
2016-05-01T08:27:38.874Z,13.65
2016-05-01T08:28:38.908Z,13.59
2016-05-01T08:29:38.865Z,13.56
2016-05-01T08:30:38.899Z,13.49
2016-05-01T08:31:38.870Z,13.59
2016-05-01T08:32:38.887Z,13.59
2016-05-01T08:33:38.891Z,13.7
2016-05-01T08:34:38.878Z,13.87
2016-05-01T08:35:38.959Z,13.93
2016-05-01T08:36:38.884Z,14.07
2016-05-01T08:37:38.886Z,13.97
2016-05-01T08:38:38.889Z,13.95
2016-05-01T08:39:38.907Z,13.83
2016-05-01T08:40:38.878Z,14
2016-05-01T08:41:38.896Z,13.97
2016-05-01T08:42:38.900Z,13.99
2016-05-01T08:43:38.902Z,13.96
2016-05-01T08:44:38.919Z,14
2016-05-01T08:45:38.891Z,13.97
2016-05-01T08:46:38.910Z,13.97
2016-05-01T08:47:38.913Z,13.9
2016-05-01T08:48:38.775Z,13.85
2016-05-01T08:49:38.933Z,13.96
2016-05-01T08:50:39.577Z,13.97
2016-05-01T08:51:38.923Z,13.99
2016-05-01T08:52:38.941Z,14.11
2016-05-01T08:53:38.944Z,14.12
2016-05-01T08:54:38.931Z,14.25
2016-05-01T08:55:38.982Z,14.22
2016-05-01T08:56:38.968Z,14.2
2016-05-01T08:57:38.954Z,14.2
2016-05-01T08:58:38.958Z,14.12
2016-05-01T08:59:38.945Z,14.18
2016-05-01T09:00:38.963Z,14.17
2016-05-01T09:01:38.951Z,14.1
2016-05-01T09:02:38.968Z,14.18
2016-05-01T09:03:38.986Z,14.23
2016-05-01T09:04:38.974Z,14.22
2016-05-01T09:05:39.258Z,14.33
2016-05-01T09:06:38.979Z,14.43
2016-05-01T09:07:38.982Z,14.45
2016-05-01T09:08:38.969Z,14.32
2016-05-01T09:09:38.987Z,14.35
2016-05-01T09:10:38.989Z,14.22
2016-05-01T09:11:38.977Z,14.17
2016-05-01T09:12:38.980Z,14.22
2016-05-01T09:13:38.998Z,14.22
2016-05-01T09:14:38.985Z,14.22
2016-05-01T09:15:38.988Z,14.18
2016-05-01T09:16:38.834Z,14.22
2016-05-01T09:17:38.994Z,14.23
2016-05-01T09:18:39.011Z,14.29
2016-05-01T09:19:38.983Z,14.29
2016-05-01T09:20:39.361Z,14.37
2016-05-01T09:21:39.005Z,14.2
2016-05-01T09:22:38.866Z,14.07
2016-05-01T09:23:39.107Z,14
2016-05-01T09:24:39.001Z,14.07
2016-05-01T09:25:39.004Z,14.12
2016-05-01T09:26:38.865Z,14.17
2016-05-01T09:27:39.010Z,14.37
2016-05-01T09:28:39.043Z,14.44
2016-05-01T09:29:39.015Z,14.44
2016-05-01T09:30:38.877Z,14.5
2016-05-01T09:31:39.036Z,14.44
2016-05-01T09:32:39.038Z,14.43
2016-05-01T09:33:39.010Z,14.43
2016-05-01T09:34:38.872Z,14.51
2016-05-01T09:35:39.437Z,14.54
2016-05-01T09:36:38.878Z,14.7
2016-05-01T09:37:39.053Z,14.86
2016-05-01T09:38:38.898Z,15.02
2016-05-01T09:39:39.042Z,14.97
2016-05-01T09:40:39.028Z,15.04
2016-05-01T09:41:39.047Z,15.04
2016-05-01T09:42:39.049Z,14.88
2016-05-01T09:43:39.053Z,14.7
2016-05-01T09:44:39.056Z,14.81
2016-05-01T09:45:39.089Z,14.77
2016-05-01T09:46:39.061Z,14.79
2016-05-01T09:47:39.079Z,14.92
2016-05-01T09:48:39.082Z,15.04
2016-05-01T09:49:38.928Z,15.04
2016-05-01T09:50:39.399Z,15.15
2016-05-01T09:51:39.105Z,15.24
2016-05-01T09:52:38.921Z,15.36
2016-05-01T09:53:39.096Z,15.44
2016-05-01T09:54:39.098Z,15.4
2016-05-01T09:55:38.943Z,15.47
2016-05-01T09:56:38.963Z,15.4
2016-05-01T09:57:39.074Z,15.31
2016-05-01T09:58:39.092Z,15.19
2016-05-01T09:59:39.112Z,15.04
2016-05-01T10:00:39.115Z,15.02
2016-05-01T10:01:39.117Z,14.99
2016-05-01T10:02:39.104Z,14.96
2016-05-01T10:03:39.122Z,14.86
2016-05-01T10:04:39.109Z,14.99
2016-05-01T10:05:39.221Z,15.1
2016-05-01T10:06:39.098Z,15.04
2016-05-01T10:07:39.134Z,15.02
2016-05-01T10:08:39.120Z,15.06
2016-05-01T10:09:39.106Z,14.97
2016-05-01T10:10:39.125Z,14.97
2016-05-01T10:11:39.128Z,14.91
2016-05-01T10:12:39.131Z,14.84
2016-05-01T10:13:39.149Z,14.85
2016-05-01T10:14:38.822Z,14.86
2016-05-01T10:15:39.014Z,14.89
2016-05-01T10:16:39.126Z,14.89
2016-05-01T10:17:39.144Z,14.97
2016-05-01T10:18:39.022Z,14.89
2016-05-01T10:19:39.133Z,14.92
2016-05-01T10:20:39.183Z,14.94
2016-05-01T10:21:39.155Z,14.97
2016-05-01T10:22:39.174Z,15.03
2016-05-01T10:23:39.161Z,15
2016-05-01T10:24:39.038Z,15.06
2016-05-01T10:25:39.025Z,15.17
2016-05-01T10:26:39.168Z,15.18
2016-05-01T10:27:39.155Z,15.19
2016-05-01T10:28:39.173Z,15.25
2016-05-01T10:29:39.020Z,15.44
2016-05-01T10:30:39.163Z,15.55
2016-05-01T10:31:39.041Z,15.52
2016-05-01T10:32:39.169Z,15.42
2016-05-01T10:33:39.187Z,15.44
2016-05-01T10:34:39.174Z,15.37
2016-05-01T10:35:39.614Z,15.35
2016-05-01T10:36:39.179Z,15.36
2016-05-01T10:37:39.041Z,15.25
2016-05-01T10:38:39.185Z,15.28
2016-05-01T10:39:39.220Z,15.35
2016-05-01T10:40:39.065Z,15.4
2016-05-01T10:41:39.224Z,15.35
2016-05-01T10:42:39.055Z,15.37
2016-05-01T10:43:39.041Z,15.46
2016-05-01T10:44:39.029Z,15.52
2016-05-01T10:45:39.220Z,15.46
2016-05-01T10:46:39.300Z,15.57
2016-05-01T10:47:38.897Z,15.52
2016-05-01T10:48:39.071Z,15.65
2016-05-01T10:49:39.230Z,15.62
2016-05-01T10:50:39.419Z,15.65
2016-05-01T10:51:39.235Z,15.77
2016-05-01T10:52:39.301Z,16.01
2016-05-01T10:53:39.069Z,16.16
2016-05-01T10:54:39.244Z,16.17
2016-05-01T10:55:39.246Z,16.31
2016-05-01T10:56:39.249Z,16.39
2016-05-01T10:57:39.095Z,16.5
2016-05-01T10:58:40.863Z,16.46
2016-05-01T10:59:39.304Z,16.51
2016-05-01T11:00:39.321Z,16.71
2016-05-01T11:01:39.356Z,16.79
2016-05-01T11:02:39.296Z,16.83
2016-05-01T11:03:39.393Z,16.87
2016-05-01T11:04:39.348Z,16.94
2016-05-01T11:05:39.007Z,16.87
2016-05-01T11:06:39.323Z,16.86
2016-05-01T11:07:39.387Z,16.83
2016-05-01T11:08:39.359Z,16.76
2016-05-01T11:09:39.378Z,16.75
2016-05-01T11:10:39.411Z,16.72
2016-05-01T11:11:39.148Z,16.71
2016-05-01T11:12:39.229Z,16.75
2016-05-01T11:13:39.389Z,16.91
2016-05-01T11:14:39.250Z,16.87
2016-05-01T11:15:39.409Z,16.83
2016-05-01T11:16:39.397Z,16.89
2016-05-01T11:17:39.414Z,16.86
2016-05-01T11:18:39.433Z,16.75
2016-05-01T11:19:39.233Z,16.69
2016-05-01T11:20:39.298Z,16.64
2016-05-01T11:21:39.472Z,16.71
2016-05-01T11:22:39.397Z,16.51
2016-05-01T11:23:39.463Z,16.49
2016-05-01T11:24:39.386Z,16.43
2016-05-01T11:25:39.452Z,16.58
2016-05-01T11:26:39.439Z,16.56
2016-05-01T11:27:39.316Z,16.66
2016-05-01T11:28:39.491Z,16.72
2016-05-01T11:29:39.479Z,16.69
2016-05-01T11:30:39.466Z,16.74
2016-05-01T11:31:39.280Z,16.69
2016-05-01T11:32:39.658Z,16.64
2016-05-01T11:33:39.426Z,16.71
2016-05-01T11:34:39.507Z,16.75
2016-05-01T11:35:39.495Z,16.75
2016-05-01T11:36:39.451Z,16.75
2016-05-01T11:37:39.546Z,16.86
2016-05-01T11:38:39.268Z,16.86
2016-05-01T11:39:39.506Z,16.9
2016-05-01T11:40:39.508Z,16.9
2016-05-01T11:41:39.495Z,16.96
2016-05-01T11:42:39.482Z,17.04
2016-05-01T11:43:39.484Z,16.96
2016-05-01T11:44:39.519Z,16.99
2016-05-01T11:45:39.505Z,16.99
2016-05-01T11:46:39.508Z,16.96
2016-05-01T11:47:39.495Z,16.9
2016-05-01T11:48:39.311Z,16.86
2016-05-01T11:49:39.594Z,16.81
2016-05-01T11:50:39.582Z,16.75
2016-05-01T11:51:39.584Z,16.75
2016-05-01T11:52:39.540Z,16.76
2016-05-01T11:53:39.372Z,16.74
2016-05-01T11:54:39.499Z,16.64
2016-05-01T11:55:39.533Z,16.75
2016-05-01T11:56:39.566Z,16.74
2016-05-01T11:57:39.616Z,16.83
2016-05-01T11:58:39.588Z,16.78
2016-05-01T11:59:39.543Z,16.75
2016-05-01T12:00:39.530Z,16.74
2016-05-01T12:01:40.080Z,16.86
2016-05-01T12:02:40.082Z,16.84
2016-05-01T12:03:40.335Z,16.97
2016-05-01T12:04:39.479Z,17.06
2016-05-01T12:05:40.293Z,17.08
2016-05-01T12:06:40.203Z,17.16
2016-05-01T12:07:40.064Z,17.15
2016-05-01T12:08:39.755Z,17.3
2016-05-01T12:09:39.899Z,17.3
2016-05-01T12:10:40.260Z,17.54
2016-05-01T12:11:39.920Z,17.64
2016-05-01T12:12:39.797Z,17.78
2016-05-01T12:13:39.831Z,17.78
2016-05-01T12:14:39.881Z,18.01
2016-05-01T12:15:39.742Z,18.01
2016-05-01T12:16:39.933Z,18.05
2016-05-01T12:17:39.950Z,18.01
2016-05-01T12:18:40.125Z,18.05
2016-05-01T12:19:39.425Z,17.92
2016-05-01T12:20:39.991Z,17.94
2016-05-01T12:21:41.228Z,17.95
2016-05-01T12:22:40.653Z,17.94
2016-05-01T12:23:40.499Z,17.9
2016-05-01T12:24:40.313Z,17.98
2016-05-01T12:25:39.410Z,17.94
2016-05-01T12:26:39.741Z,17.86
2016-05-01T12:27:40.494Z,17.94
2016-05-01T12:28:39.918Z,17.82
2016-05-01T12:29:39.608Z,17.83
2016-05-01T12:30:39.501Z,17.82
2016-05-01T12:31:39.567Z,17.82
2016-05-01T12:32:43.476Z,17.8
2016-05-01T12:33:41.401Z,17.71
2016-05-01T12:34:40.513Z,17.7
2016-05-01T12:35:41.812Z,17.6
2016-05-01T12:36:40.862Z,17.51
2016-05-01T12:37:40.551Z,17.41
2016-05-01T12:38:39.914Z,17.39
2016-05-01T12:39:41.385Z,17.39
2016-05-01T12:40:40.013Z,17.2
2016-05-01T12:41:40.218Z,17.2
2016-05-01T12:42:40.206Z,17.11
2016-05-01T12:43:39.709Z,17.19
2016-05-01T12:44:39.492Z,17.34
2016-05-01T12:45:41.354Z,17.46
2016-05-01T12:46:40.935Z,17.52
2016-05-01T12:47:40.578Z,17.68
2016-05-01T12:48:40.004Z,17.79
2016-05-01T12:49:39.959Z,17.76
2016-05-01T12:50:40.415Z,17.72
2016-05-01T12:51:40.589Z,17.74
2016-05-01T12:52:39.967Z,17.74
2016-05-01T12:53:40.235Z,17.65
2016-05-01T12:54:39.894Z,17.63
2016-05-01T12:55:40.600Z,17.54
2016-05-01T12:56:40.338Z,17.64
2016-05-01T12:57:40.216Z,17.67
2016-05-01T12:58:41.046Z,17.72
2016-05-01T12:59:41.173Z,17.76
2016-05-01T13:00:40.051Z,17.82
2016-05-01T13:01:40.007Z,17.92
2016-05-01T13:02:39.900Z,18.04
2016-05-01T13:03:40.247Z,18.03
2016-05-01T13:04:39.702Z,18.13
2016-05-01T13:05:39.924Z,18.18
2016-05-01T13:06:39.880Z,18.19
2016-05-01T13:07:40.007Z,18.05
2016-05-01T13:08:41.745Z,17.98